LBWN

Varna Airport

Varna, Bulgaria
TAF LBWN 231700Z 2318/2418 11010KT CAVOK BECMG 2319/2321 VRB04KT BECMG 2408/2410 12012KT
Issued Valid From Valid To
Apr-23 @ 17:00 UTC
(6 hours ago)
Apr-23 @ 18:00 UTC
(5 hours ago)
Apr-24 @ 18:00 UTC
(in 19 hours)
Expired Click to View Apr-23 @ 18:00 to Apr-23 @ 19:00
TAF LBWN 231700Z 2318/2418 11010KT CAVOK
Wind Visibility Clouds Conditions
110° at 10 knots 10,000+ meters
  • No significant clouds
Becoming Apr-23 @ 19:00 to Apr-24 @ 08:00
BECMG 2319/2321 VRB04KT
Wind Visibility Clouds Conditions
Variable at 4 knots 10,000+ meters
  • No significant clouds
Becoming Apr-24 @ 08:00 to Apr-24 @ 18:00
BECMG 2408/2410 12012KT
Wind Visibility Clouds Conditions
120° at 12 knots 10,000+ meters
  • No significant clouds
TAF LBWN 231700Z 2318/2418 11010KT CAVOK BECMG 2319/2321 VRB04KT BECMG 2408/2410 12012KT
Issued Apr-23 @ 17:00 UTC
(6 hours ago)
Valid From Apr-23 @ 18:00 UTC
(5 hours ago)
Valid To Apr-24 @ 18:00 UTC
(in 19 hours)
Apr-23 @ 18:00 - Apr-23 @ 19:00
Wind Visibility
110° at 10 knots 10,000+ meters
Clouds
  • No significant clouds
Conditions
Becoming Apr-23 @ 19:00 - Apr-24 @ 08:00
Wind Visibility
Variable at 4 knots 10,000+ meters
Clouds
  • No significant clouds
Conditions
Becoming Apr-24 @ 08:00 - Apr-24 @ 18:00
Wind Visibility
120° at 12 knots 10,000+ meters
Clouds
  • No significant clouds
Conditions